Time;durP1;ratioP1;P1;durP2;ratioP2;P2;SDS_P1;SDS_P2;PMS_P1;PMS_P2;Temp;Humidity;BMP_temperature;BMP_pressure;BME280_temperature;BME280_humidity;BME280_pressure;Samples;Min_cycle;Max_cycle;Signal;HPM_P1;HPM_P2
2023/03/23 00:01:05;;;;;;;;;;;;;;;16.00;63.63;99430.63;5053708;28;19932;-59
2023/03/23 00:03:31;;;;;;;;;;;;;;;16.03;63.36;99434.97;5069363;28;19927;-58
2023/03/23 00:06:04;;;;;;;;;;;;;;;16.07;62.78;99418.56;5068818;28;20073;-58
2023/03/23 00:08:29;;;;;;;;;;;;;;;16.07;62.57;99420.38;5070234;28;19928;-58
2023/03/23 00:10:57;;;;;;;;;;;;;;;16.09;63.14;99431.88;5069377;28;19987;-58
2023/03/23 00:13:23;;;;;;;;;;;;;;;16.10;63.63;99436.28;5073314;28;20419;-59
2023/03/23 00:15:49;;;;;;;;;;;;;;;16.07;64.33;99439.16;5069959;28;19931;-58
2023/03/23 00:18:21;;;;;;;;;;;;;;;16.03;64.30;99434.97;5053338;28;19916;-59
2023/03/23 00:20:54;;;;;;;;;;;;;;;15.98;65.77;99429.03;5053097;28;19923;-58
2023/03/23 00:23:22;;;;;;;;;;;;;;;15.96;66.46;99423.75;5055683;28;19935;-58
2023/03/23 00:25:48;;;;;;;;;;;;;;;15.92;67.34;99416.00;5053467;28;19996;-58
2023/03/23 00:28:14;;;;;;;;;;;;;;;15.91;67.85;99427.69;5053523;28;19916;-59
2023/03/23 00:30:41;;;;;;;;;;;;;;;15.85;68.50;99418.19;5053594;28;19916;-58
2023/03/23 00:33:07;;;;;;;;;;;;;;;15.90;68.23;99423.28;5053257;28;20052;-58
2023/03/23 00:35:32;;;;;;;;;;;;;;;15.83;68.96;99415.63;5052882;28;20012;-59
2023/03/23 00:37:58;;;;;;;;;;;;;;;15.75;68.05;99409.88;5055740;28;19944;-59
2023/03/23 00:40:24;;;;;;;;;;;;;;;15.72;69.33;99402.03;5071949;28;19934;-59
2023/03/23 00:42:49;;;;;;;;;;;;;;;15.74;69.56;99408.16;5069174;28;19961;-59
2023/03/23 00:45:14;;;;;;;;;;;;;;;15.73;69.45;99402.91;5052588;28;19980;-59
2023/03/23 00:47:41;;;;;;;;;;;;;;;15.69;69.17;99396.88;5059406;28;19920;-58
2023/03/23 00:50:07;;;;;;;;;;;;;;;15.69;69.65;99393.31;5058482;28;19998;-59
2023/03/23 00:52:32;;;;;;;;;;;;;;;15.72;68.93;99398.47;5053340;28;20338;-59
2023/03/23 00:54:58;;;;;;;;;;;;;;;15.73;68.55;99395.69;5070829;28;19928;-58
2023/03/23 00:57:24;;;;;;;;;;;;;;;15.78;69.43;99390.91;5072657;28;19969;-58
2023/03/23 00:59:52;;;;;;;;;;;;;;;15.79;69.39;99387.28;5072500;28;19923;-59
2023/03/23 01:02:19;;;;;;;;;;;;;;;15.80;69.95;99393.50;5068905;28;20313;-59
2023/03/23 01:04:44;;;;;;;;;;;;;;;15.77;70.72;99394.56;5072565;28;19976;-59
2023/03/23 01:07:12;;;;;;;;;;;;;;;15.78;69.73;99388.22;5072199;28;19935;-59
2023/03/23 01:09:39;;;;;;;;;;;;;;;15.77;69.85;99391.00;5070353;28;20752;-59
2023/03/23 01:12:05;;;;;;;;;;;;;;;15.72;70.84;99380.59;5052976;28;19958;-58
2023/03/23 01:14:30;;;;;;;;;;;;;;;15.74;70.35;99373.31;5051134;28;20682;-58
2023/03/23 01:16:56;;;;;;;;;;;;;;;15.69;70.52;99367.38;5055542;28;19921;-59
2023/03/23 01:19:21;;;;;;;;;;;;;;;15.68;72.14;99367.47;5069660;28;20025;-58
2023/03/23 01:21:47;;;;;;;;;;;;;;;15.64;72.52;99366.81;5067727;28;20037;-59
2023/03/23 01:24:12;;;;;;;;;;;;;;;15.60;72.34;99359.06;5070934;28;20711;-59
2023/03/23 01:26:38;;;;;;;;;;;;;;;15.59;72.71;99358.19;5071644;28;20299;-59
2023/03/23 01:29:03;;;;;;;;;;;;;;;15.58;72.57;99356.44;5071860;28;19917;-59
2023/03/23 01:31:28;;;;;;;;;;;;;;;15.55;72.54;99350.44;5069332;28;19924;-59
2023/03/23 01:33:55;;;;;;;;;;;;;;;15.56;71.59;99353.03;5071990;28;20022;-59
2023/03/23 01:36:26;;;;;;;;;;;;;;;15.57;72.17;99348.50;5070296;28;20426;-59
2023/03/23 01:38:51;;;;;;;;;;;;;;;15.58;72.33;99339.53;5069656;28;20376;-58
2023/03/23 01:41:17;;;;;;;;;;;;;;;15.60;70.58;99338.47;5071428;28;20042;-59
2023/03/23 01:43:57;;;;;;;;;;;;;;;15.62;71.27;99333.00;5068481;28;19969;-59
2023/03/23 01:46:23;;;;;;;;;;;;;;;15.63;69.64;99329.38;5071618;28;20689;-59
2023/03/23 01:48:49;;;;;;;;;;;;;;;15.71;69.43;99327.94;5071641;28;19947;-58
2023/03/23 01:51:15;;;;;;;;;;;;;;;15.76;69.28;99316.91;5071418;28;19966;-58
2023/03/23 01:53:50;;;;;;;;;;;;;;;15.78;68.45;99321.19;5054375;28;20008;-59
2023/03/23 01:56:18;;;;;;;;;;;;;;;15.80;67.82;99313.03;5051423;28;20037;-59
2023/03/23 01:58:44;;;;;;;;;;;;;;;15.95;66.36;99313.88;5051330;28;20007;-58
2023/03/23 02:01:11;;;;;;;;;;;;;;;16.02;66.63;99294.59;5056104;28;20003;-58
2023/03/23 02:03:38;;;;;;;;;;;;;;;16.06;65.61;99293.44;5071286;28;19996;-58
2023/03/23 02:06:04;;;;;;;;;;;;;;;16.12;65.15;99297.53;5070968;28;19958;-59
2023/03/23 02:08:32;;;;;;;;;;;;;;;16.16;66.19;99289.16;5067847;28;19943;-59
2023/03/23 02:10:57;;;;;;;;;;;;;;;16.18;65.73;99294.41;5070977;28;19919;-59
2023/03/23 02:13:23;;;;;;;;;;;;;;;16.18;66.15;99284.56;5071107;28;19916;-59
2023/03/23 02:15:52;;;;;;;;;;;;;;;16.16;66.15;99293.69;5050870;28;19924;-59
2023/03/23 02:18:25;;;;;;;;;;;;;;;16.14;66.87;99288.44;5051096;28;20299;-59
2023/03/23 02:21:00;;;;;;;;;;;;;;;16.14;66.50;99292.91;5050982;28;19945;-59
2023/03/23 02:23:25;;;;;;;;;;;;;;;16.14;67.04;99298.28;5065538;28;20638;-59
2023/03/23 02:26:05;;;;;;;;;;;;;;;16.14;66.83;99291.09;5070577;28;19920;-59
2023/03/23 02:28:49;;;;;;;;;;;;;;;16.13;67.04;99294.72;5070886;28;19966;-58
2023/03/23 02:31:16;;;;;;;;;;;;;;;16.10;67.22;99294.06;5066356;28;20395;-59
2023/03/23 02:34:00;;;;;;;;;;;;;;;16.09;67.19;99292.38;5050875;28;19921;-59
2023/03/23 02:36:32;;;;;;;;;;;;;;;16.06;67.02;99284.53;5051741;28;19924;-59
2023/03/23 02:39:09;;;;;;;;;;;;;;;16.08;67.82;99287.97;5059391;28;19923;-58
2023/03/23 02:41:41;;;;;;;;;;;;;;;16.07;67.17;99284.41;5070854;28;20262;-59
2023/03/23 02:44:07;;;;;;;;;;;;;;;16.09;66.86;99276.28;5056546;28;19935;-59
2023/03/23 02:46:35;;;;;;;;;;;;;;;16.04;67.17;99267.66;4634323;28;19924;-59
2023/03/23 02:49:02;;;;;;;;;;;;;;;16.03;67.31;99282.88;5057312;28;20037;-59
2023/03/23 02:51:28;;;;;;;;;;;;;;;16.03;67.89;99276.69;5069557;28;20040;-58
2023/03/23 02:53:55;;;;;;;;;;;;;;;16.03;67.70;99277.53;5066796;28;20061;-59
2023/03/23 02:56:22;;;;;;;;;;;;;;;16.05;67.75;99264.88;5070170;28;20027;-59
2023/03/23 02:58:48;;;;;;;;;;;;;;;16.06;67.27;99273.78;5070278;28;19916;-58
2023/03/23 03:01:16;;;;;;;;;;;;;;;16.09;67.95;99268.22;5066436;28;19938;-58
2023/03/23 03:03:41;;;;;;;;;;;;;;;16.08;67.33;99272.72;5066617;28;20469;-58
2023/03/23 03:06:12;;;;;;;;;;;;;;;16.06;68.04;99265.75;5069965;28;20051;-59
2023/03/23 03:08:45;;;;;;;;;;;;;;;16.02;66.64;99270.44;5049833;28;20018;-59
2023/03/23 03:11:15;;;;;;;;;;;;;;;16.09;67.54;99271.78;5065818;28;20390;-59
2023/03/23 03:14:17;;;;;;;;;;;;;;;16.10;66.87;99272.59;5053782;28;19957;-59
2023/03/23 03:17:03;;;;;;;;;;;;;;;16.17;65.60;99263.19;5017321;28;19966;-58
2023/03/23 03:19:32;;;;;;;;;;;;;;;16.20;66.17;99273.72;5066353;28;19947;-59
2023/03/23 03:21:58;;;;;;;;;;;;;;;16.22;65.58;99275.34;5069057;28;20314;-58
2023/03/23 03:24:25;;;;;;;;;;;;;;;16.22;66.77;99266.44;5065660;28;19924;-58
2023/03/23 03:26:53;;;;;;;;;;;;;;;16.18;66.07;99264.91;5069131;28;19934;-58
2023/03/23 03:29:23;;;;;;;;;;;;;;;16.20;66.26;99263.84;5061513;28;20352;-58
2023/03/23 03:31:51;;;;;;;;;;;;;;;16.15;66.47;99260.63;5056282;28;20029;-58
2023/03/23 03:34:17;;;;;;;;;;;;;;;16.15;66.54;99268.66;5068944;28;20490;-59
2023/03/23 03:36:45;;;;;;;;;;;;;;;16.16;66.96;99272.22;5069938;28;20429;-59
2023/03/23 03:39:12;;;;;;;;;;;;;;;16.14;66.24;99276.81;5066213;28;19951;-58
2023/03/23 03:41:37;;;;;;;;;;;;;;;16.14;66.44;99275.00;5069613;28;20287;-58
2023/03/23 03:44:04;;;;;;;;;;;;;;;16.14;67.68;99276.81;5068889;28;19953;-59
2023/03/23 03:46:30;;;;;;;;;;;;;;;16.11;67.28;99277.03;5073717;28;19983;-58
2023/03/23 03:48:56;;;;;;;;;;;;;;;16.11;67.59;99277.03;5073695;28;20435;-59
2023/03/23 03:51:22;;;;;;;;;;;;;;;16.03;67.84;99268.63;5059582;28;19957;-58
2023/03/23 03:53:47;;;;;;;;;;;;;;;16.00;68.46;99272.38;5053741;28;19927;-58
2023/03/23 03:56:13;;;;;;;;;;;;;;;16.01;68.87;99273.25;5053966;28;19939;-58
2023/03/23 03:58:38;;;;;;;;;;;;;;;15.98;68.35;99268.09;5055569;28;20027;-58
2023/03/23 04:01:04;;;;;;;;;;;;;;;15.98;68.31;99284.19;5054728;28;19948;-58
2023/03/23 04:03:29;;;;;;;;;;;;;;;15.98;68.59;99278.81;5064426;28;19943;-58
2023/03/23 04:05:55;;;;;;;;;;;;;;;15.96;68.03;99280.72;5066546;28;20440;-58
2023/03/23 04:08:23;;;;;;;;;;;;;;;15.98;68.89;99286.84;5056028;28;19950;-59
2023/03/23 04:10:49;;;;;;;;;;;;;;;15.99;68.74;99288.56;5053299;28;19912;-59
2023/03/23 04:13:15;;;;;;;;;;;;;;;15.98;68.95;99278.81;5053032;28;19989;-59
2023/03/23 04:15:40;;;;;;;;;;;;;;;15.98;68.82;99293.06;5053357;28;19917;-59
2023/03/23 04:18:05;;;;;;;;;;;;;;;15.97;68.85;99293.16;5066348;28;19948;-58
2023/03/23 04:20:31;;;;;;;;;;;;;;;15.92;67.65;99296.16;5073211;28;20312;-58
2023/03/23 04:22:56;;;;;;;;;;;;;;;15.90;68.89;99294.56;5073030;28;19974;-59
2023/03/23 04:25:22;;;;;;;;;;;;;;;15.90;69.23;99299.91;5072993;28;19938;-58
2023/03/23 04:27:52;;;;;;;;;;;;;;;15.89;69.12;99304.41;5069355;28;19921;-59
2023/03/23 04:30:19;;;;;;;;;;;;;;;15.90;69.75;99307.97;5073147;28;20287;-58
2023/03/23 04:32:44;;;;;;;;;;;;;;;15.88;69.49;99304.50;5061822;28;19956;-58
2023/03/23 04:35:11;;;;;;;;;;;;;;;15.81;70.07;99304.06;5052916;28;20001;-59
2023/03/23 04:37:37;;;;;;;;;;;;;;;15.81;69.54;99299.53;5052704;28;19995;-59
2023/03/23 04:40:07;;;;;;;;;;;;;;;15.83;70.42;99297.63;5052904;28;20313;-58
2023/03/23 04:42:32;;;;;;;;;;;;;;;15.83;70.42;99297.63;5057472;28;19937;-58
2023/03/23 04:44:58;;;;;;;;;;;;;;;15.75;70.42;99309.78;5072159;28;20283;-58
2023/03/23 04:47:24;;;;;;;;;;;;;;;15.77;69.89;99308.75;5071058;28;20435;-58
2023/03/23 04:49:50;;;;;;;;;;;;;;;15.78;69.90;99314.97;5060220;28;19999;-58
2023/03/23 04:52:15;;;;;;;;;;;;;;;15.78;70.91;99313.13;5072623;28;19989;-59
2023/03/23 04:54:41;;;;;;;;;;;;;;;15.75;70.95;99310.66;5061517;28;19920;-58
2023/03/23 04:57:08;;;;;;;;;;;;;;;15.79;70.08;99312.19;5052281;28;19931;-58
2023/03/23 04:59:33;;;;;;;;;;;;;;;15.77;70.71;99324.84;5053005;28;20383;-58
2023/03/23 05:01:59;;;;;;;;;;;;;;;15.74;71.35;99330.41;5070723;28;19948;-59
2023/03/23 05:04:24;;;;;;;;;;;;;;;15.75;72.55;99337.47;5071452;28;20562;-59
2023/03/23 05:06:50;;;;;;;;;;;;;;;15.70;73.72;99325.31;5059160;28;19982;-59
2023/03/23 05:09:15;;;;;;;;;;;;;;;15.66;73.29;99316.63;5051295;28;19917;-58
2023/03/23 05:11:41;;;;;;;;;;;;;;;15.62;73.53;99320.47;5053679;28;20286;-58
2023/03/23 05:14:06;;;;;;;;;;;;;;;15.62;72.49;99320.47;5054834;28;19931;-59
2023/03/23 05:16:31;;;;;;;;;;;;;;;15.65;72.75;99320.25;5071773;28;19966;-60
2023/03/23 05:18:59;;;;;;;;;;;;;;;15.59;73.81;99331.38;5070261;28;19952;-59
2023/03/23 05:21:26;;;;;;;;;;;;;;;15.57;72.58;99327.94;5070169;28;19930;-59
2023/03/23 05:23:54;;;;;;;;;;;;;;;15.58;72.45;99329.63;5071955;28;19927;-59
2023/03/23 05:26:20;;;;;;;;;;;;;;;15.61;71.72;99334.84;5056280;28;20394;-59
2023/03/23 05:28:45;;;;;;;;;;;;;;;15.65;72.50;99336.34;5051820;28;19952;-60
2023/03/23 05:31:11;;;;;;;;;;;;;;;15.62;72.87;99347.28;5062203;28;20429;-57
2023/03/23 05:33:36;;;;;;;;;;;;;;;15.57;75.09;99344.00;5070917;28;19949;-60
2023/03/23 05:36:04;;;;;;;;;;;;;;;15.50;74.73;99347.19;5070742;28;19942;-57
2023/03/23 05:38:29;;;;;;;;;;;;;;;15.51;74.72;99349.78;5070967;28;19990;-60
2023/03/23 05:40:59;;;;;;;;;;;;;;;15.46;74.45;99357.25;5067751;28;19975;-60
2023/03/23 05:43:25;;;;;;;;;;;;;;;15.45;74.97;99355.50;5071520;28;19926;-60
2023/03/23 05:45:50;;;;;;;;;;;;;;;15.47;74.78;99353.59;5068077;28;19958;-60
2023/03/23 05:48:16;;;;;;;;;;;;;;;15.45;75.29;99355.50;5071630;28;19917;-60
2023/03/23 05:50:41;;;;;;;;;;;;;;;15.40;76.34;99357.59;5069568;28;19924;-60
2023/03/23 05:53:06;;;;;;;;;;;;;;;15.40;76.73;99362.13;5051238;28;19996;-60
2023/03/23 05:55:31;;;;;;;;;;;;;;;15.33;76.70;99361.63;5067047;28;19982;-60
2023/03/23 05:57:58;;;;;;;;;;;;;;;15.32;75.15;99351.00;5069308;28;20021;-60
2023/03/23 06:00:24;;;;;;;;;;;;;;;15.34;75.46;99359.78;5068445;28;19944;-60
2023/03/23 06:02:50;;;;;;;;;;;;;;;15.32;75.62;99357.19;5068759;28;19942;-60
2023/03/23 06:05:16;;;;;;;;;;;;;;;15.37;76.49;99351.56;5070408;28;20042;-60
2023/03/23 06:07:42;;;;;;;;;;;;;;;15.37;76.75;99363.13;5060125;28;20388;-60
2023/03/23 06:10:08;;;;;;;;;;;;;;;15.39;75.82;99366.63;5051187;28;20029;-60
2023/03/23 06:12:34;;;;;;;;;;;;;;;15.38;76.14;99367.56;5051197;28;19928;-60
2023/03/23 06:15:00;;;;;;;;;;;;;;;15.34;77.60;99378.53;5070564;28;19930;-60
2023/03/23 06:17:26;;;;;;;;;;;;;;;15.33;76.86;99380.38;5070689;28;20005;-61
2023/03/23 06:19:51;;;;;;;;;;;;;;;15.35;77.66;99391.84;5071023;28;19930;-60
2023/03/23 06:22:17;;;;;;;;;;;;;;;15.33;77.42;99392.91;5067515;28;19995;-60
2023/03/23 06:24:42;;;;;;;;;;;;;;;15.35;78.04;99393.69;5070686;28;19944;-60
2023/03/23 06:27:08;;;;;;;;;;;;;;;15.31;78.27;99395.69;5070549;28;19935;-60
2023/03/23 06:29:34;;;;;;;;;;;;;;;15.37;78.55;99400.66;5053087;28;20352;-60
2023/03/23 06:32:02;;;;;;;;;;;;;;;15.35;78.00;99415.94;5067799;28;20008;-60
2023/03/23 06:34:27;;;;;;;;;;;;;;;15.32;77.84;99423.34;5070472;28;20419;-60
2023/03/23 06:36:53;;;;;;;;;;;;;;;15.32;78.33;99424.19;5066839;28;20024;-60
2023/03/23 06:39:18;;;;;;;;;;;;;;;15.32;77.54;99421.50;5070367;28;19920;-60
2023/03/23 06:41:44;;;;;;;;;;;;;;;15.36;78.34;99422.19;5066646;28;19981;-61
2023/03/23 06:44:13;;;;;;;;;;;;;;;15.36;79.27;99433.78;5070087;28;19927;-60
2023/03/23 06:46:38;;;;;;;;;;;;;;;15.35;79.92;99440.06;5069972;28;19959;-60
2023/03/23 06:49:04;;;;;;;;;;;;;;;15.31;80.13;99429.63;5069321;28;19970;-60
2023/03/23 06:51:30;;;;;;;;;;;;;;;15.22;79.24;99432.91;5062106;28;19951;-60
2023/03/23 06:53:55;;;;;;;;;;;;;;;15.26;78.20;99446.00;5049811;28;19975;-61
2023/03/23 06:56:20;;;;;;;;;;;;;;;15.32;78.21;99445.63;5064871;28;20421;-60
2023/03/23 06:58:46;;;;;;;;;;;;;;;15.35;77.17;99444.59;5069539;28;19941;-60
2023/03/23 07:01:12;;;;;;;;;;;;;;;15.41;76.92;99460.31;5068361;28;19920;-57
2023/03/23 07:03:37;;;;;;;;;;;;;;;15.46;75.72;99459.09;5060151;28;19939;-59
2023/03/23 07:06:03;;;;;;;;;;;;;;;15.51;75.01;99456.13;5066830;28;19946;-59
2023/03/23 07:08:29;;;;;;;;;;;;;;;15.57;75.43;99464.66;5068198;28;19924;-59
2023/03/23 07:10:55;;;;;;;;;;;;;;;15.60;74.89;99459.09;5050944;28;19963;-59
2023/03/23 07:13:21;;;;;;;;;;;;;;;15.61;75.89;99452.78;5050169;28;19928;-59
2023/03/23 07:15:46;;;;;;;;;;;;;;;15.65;76.49;99448.94;5050108;28;19920;-59
2023/03/23 07:18:12;;;;;;;;;;;;;;;15.67;75.79;99446.16;5065127;28;20374;-59
2023/03/23 07:20:37;;;;;;;;;;;;;;;15.67;76.18;99446.16;5061272;28;20730;-59
2023/03/23 07:23:05;;;;;;;;;;;;;;;15.65;76.38;99440.91;5070037;28;19912;-59
2023/03/23 07:25:31;;;;;;;;;;;;;;;15.67;76.63;99449.72;5070041;28;19939;-59
2023/03/23 07:27:56;;;;;;;;;;;;;;;15.67;76.07;99452.41;5066333;28;20386;-59
2023/03/23 07:30:21;;;;;;;;;;;;;;;15.70;77.19;99446.84;5066968;28;20871;-59
2023/03/23 07:32:46;;;;;;;;;;;;;;;15.74;77.59;99448.41;5065195;28;19962;-59
2023/03/23 07:35:12;;;;;;;;;;;;;;;15.78;77.09;99449.91;5069600;28;19933;-59
2023/03/23 07:37:37;;;;;;;;;;;;;;;15.78;76.74;99460.63;5057289;28;19959;-59
2023/03/23 07:40:14;;;;;;;;;;;;;;;15.78;76.45;99462.47;5068871;28;19932;-60
2023/03/23 07:42:40;;;;;;;;;;;;;;;15.81;77.34;99463.13;5069903;28;19926;-59
2023/03/23 07:45:05;;;;;;;;;;;;;;;15.88;77.04;99468.97;5069067;28;19949;-59
2023/03/23 07:47:31;;;;;;;;;;;;;;;15.88;76.89;99465.44;5052256;28;19921;-59
2023/03/23 07:49:56;;;;;;;;;;;;;;;15.91;77.27;99465.25;5049405;28;19938;-58
2023/03/23 07:52:22;;;;;;;;;;;;;;;15.98;76.57;99471.94;5052122;28;19962;-59
2023/03/23 07:54:47;;;;;;;;;;;;;;;16.07;75.91;99482.09;5049518;28;19983;-59
2023/03/23 07:57:12;;;;;;;;;;;;;;;16.19;76.06;99487.56;5049562;28;19913;-59
2023/03/23 07:59:38;;;;;;;;;;;;;;;16.21;77.11;99482.09;5049359;28;19950;-59
2023/03/23 08:02:03;;;;;;;;;;;;;;;16.27;77.17;99477.19;5060166;28;19942;-59
2023/03/23 08:04:29;;;;;;;;;;;;;;;16.29;77.33;99483.28;5069324;28;19959;-59
2023/03/23 08:06:54;;;;;;;;;;;;;;;16.39;77.12;99479.06;5065326;28;19993;-60
2023/03/23 08:09:19;;;;;;;;;;;;;;;16.40;76.90;99486.16;5049656;28;19932;-59
2023/03/23 08:11:45;;;;;;;;;;;;;;;16.39;76.60;99480.91;5049640;28;19944;-59
2023/03/23 08:14:11;;;;;;;;;;;;;;;16.42;75.83;99483.38;5051806;28;20547;-59
2023/03/23 08:16:36;;;;;;;;;;;;;;;16.52;75.52;99489.91;5049375;28;19934;-59
2023/03/23 08:19:02;;;;;;;;;;;;;;;16.60;74.92;99487.59;5053497;28;20379;-59
2023/03/23 08:21:27;;;;;;;;;;;;;;;16.70;74.45;99484.22;5069396;28;19953;-59
2023/03/23 08:23:53;;;;;;;;;;;;;;;16.80;73.64;99490.66;5069291;28;19928;-59
2023/03/23 08:26:18;;;;;;;;;;;;;;;16.88;73.24;99484.81;5053490;28;20050;-59
2023/03/23 08:28:44;;;;;;;;;;;;;;;16.97;72.73;99489.56;5049905;28;19940;-59
2023/03/23 08:31:11;;;;;;;;;;;;;;;16.98;72.08;99499.34;5057749;28;19946;-59
2023/03/23 08:33:37;;;;;;;;;;;;;;;16.98;71.13;99493.97;5072854;28;19955;-59
2023/03/23 08:36:03;;;;;;;;;;;;;;;17.07;70.99;99496.03;5072962;28;19942;-59
2023/03/23 08:38:28;;;;;;;;;;;;;;;17.10;70.82;99510.13;5037516;28;19929;-59
2023/03/23 08:41:00;;;;;;;;;;;;;;;17.10;71.16;99511.94;5052824;28;19917;-59
2023/03/23 08:43:27;;;;;;;;;;;;;;;17.07;70.49;99514.84;5052895;28;19927;-59
2023/03/23 08:45:52;;;;;;;;;;;;;;;17.19;70.29;99535.53;5055237;28;19921;-59
2023/03/23 08:48:18;;;;;;;;;;;;;;;17.16;70.32;99540.25;5070469;28;19936;-59
2023/03/23 08:50:43;;;;;;;;;;;;;;;17.14;70.45;99551.09;5054748;28;20019;-59
2023/03/23 08:53:09;;;;;;;;;;;;;;;17.12;70.43;99544.97;5058016;28;20304;-59
2023/03/23 08:55:34;;;;;;;;;;;;;;;17.12;70.16;99565.63;5065738;28;19948;-59
2023/03/23 08:58:00;;;;;;;;;;;;;;;17.09;70.57;99563.97;5066888;28;19919;-59
2023/03/23 09:00:26;;;;;;;;;;;;;;;17.12;70.59;99560.25;5070789;28;19925;-59
2023/03/23 09:02:52;;;;;;;;;;;;;;;17.21;70.81;99554.25;5071829;28;19942;-59
2023/03/23 09:05:18;;;;;;;;;;;;;;;17.15;69.40;99558.19;5062127;28;19995;-59
2023/03/23 09:07:46;;;;;;;;;;;;;;;17.23;70.14;99572.00;5054777;28;20564;-59
2023/03/23 09:10:12;;;;;;;;;;;;;;;17.13;69.38;99557.47;5052290;28;20391;-59
2023/03/23 09:12:38;;;;;;;;;;;;;;;17.14;69.54;99564.53;5054516;28;20074;-59
2023/03/23 09:15:08;;;;;;;;;;;;;;;17.11;69.57;99548.63;5051464;28;20023;-59
2023/03/23 09:17:34;;;;;;;;;;;;;;;17.18;69.59;99557.16;5061283;28;20340;-59
2023/03/23 09:19:59;;;;;;;;;;;;;;;17.14;68.65;99553.78;5059669;28;19923;-59
2023/03/23 09:22:24;;;;;;;;;;;;;;;17.15;68.86;99555.50;5071430;28;19912;-59
2023/03/23 09:24:51;;;;;;;;;;;;;;;17.10;68.84;99565.69;5059371;28;20042;-59
2023/03/23 09:27:17;;;;;;;;;;;;;;;17.00;68.35;99565.44;5051329;28;19970;-59
2023/03/23 09:29:44;;;;;;;;;;;;;;;17.06;69.06;99569.56;5061325;28;20008;-59
2023/03/23 09:32:09;;;;;;;;;;;;;;;17.09;68.46;99572.06;5062312;28;20422;-59
2023/03/23 09:34:35;;;;;;;;;;;;;;;17.11;69.44;99578.19;5071754;28;19952;-58
2023/03/23 09:37:04;;;;;;;;;;;;;;;16.98;68.71;99559.31;5060089;28;20409;-59
2023/03/23 09:39:29;;;;;;;;;;;;;;;16.99;70.09;99560.19;5071670;28;20338;-59
2023/03/23 09:42:02;;;;;;;;;;;;;;;16.96;69.74;99576.50;5070567;28;19916;-59
2023/03/23 09:44:45;;;;;;;;;;;;;;;16.98;70.15;99574.59;5069260;28;19966;-59
2023/03/23 09:47:25;;;;;;;;;;;;;;;17.04;70.30;99576.88;5051460;28;20634;-59
2023/03/23 09:49:57;;;;;;;;;;;;;;;16.98;70.58;99569.22;5051376;28;19929;-59
2023/03/23 09:52:26;;;;;;;;;;;;;;;17.03;70.94;99572.47;5053574;28;19959;-59
2023/03/23 09:54:52;;;;;;;;;;;;;;;17.04;70.10;99579.53;5051041;28;20007;-59
2023/03/23 09:57:31;;;;;;;;;;;;;;;17.12;70.39;99587.13;5053981;28;19925;-59
2023/03/23 09:59:59;;;;;;;;;;;;;;;17.16;70.70;99583.25;5051707;28;19917;-59
2023/03/23 10:02:39;;;;;;;;;;;;;;;17.19;70.38;99583.91;5062174;28;19917;-59
2023/03/23 10:05:17;;;;;;;;;;;;;;;17.16;70.82;99578.75;5059763;28;19947;-59
2023/03/23 10:07:45;;;;;;;;;;;;;;;17.21;70.25;99576.63;5070564;28;20220;-59
2023/03/23 10:10:13;;;;;;;;;;;;;;;17.28;69.91;99582.44;5056670;28;20468;-59
2023/03/23 10:12:44;;;;;;;;;;;;;;;17.21;69.61;99576.63;5055406;28;20357;-59
2023/03/23 10:15:25;;;;;;;;;;;;;;;17.15;70.26;99587.75;5064965;28;19979;-58
2023/03/23 10:17:57;;;;;;;;;;;;;;;17.10;71.40;99582.69;5051093;28;20360;-58
2023/03/23 10:20:44;;;;;;;;;;;;;;;17.11;71.34;99583.56;5051017;28;19966;-58
2023/03/23 10:23:18;;;;;;;;;;;;;;;17.13;71.83;99589.72;5050967;28;20070;-58
2023/03/23 10:26:06;;;;;;;;;;;;;;;17.12;71.71;99592.50;5066547;28;20290;-58
2023/03/23 10:28:37;;;;;;;;;;;;;;;17.10;71.70;99589.88;5023336;28;19964;-58
2023/03/23 10:31:03;;;;;;;;;;;;;;;17.12;72.09;99581.75;5057582;28;19965;-58
2023/03/23 10:33:43;;;;;;;;;;;;;;;17.18;71.87;99579.53;5070689;28;20380;-58
2023/03/23 10:36:28;;;;;;;;;;;;;;;17.25;70.96;99578.13;5064418;28;19920;-59
2023/03/23 10:38:59;;;;;;;;;;;;;;;17.42;70.92;99569.81;5050629;28;19999;-59
2023/03/23 10:41:24;;;;;;;;;;;;;;;17.46;69.60;99586.63;5051521;28;19921;-59
2023/03/23 10:43:52;;;;;;;;;;;;;;;17.55;69.24;99586.88;5052244;28;19978;-59
2023/03/23 10:46:36;;;;;;;;;;;;;;;17.62;68.21;99581.94;5053470;28;20316;-59
2023/03/23 10:49:04;;;;;;;;;;;;;;;17.76;68.30;99580.00;5052790;28;19921;-59
2023/03/23 10:51:34;;;;;;;;;;;;;;;17.87;67.66;99588.22;5053297;28;19970;-59
2023/03/23 10:54:02;;;;;;;;;;;;;;;17.96;67.11;99582.19;5053341;28;20436;-59
2023/03/23 10:56:29;;;;;;;;;;;;;;;17.97;67.04;99600.06;5055823;28;19937;-59
2023/03/23 10:58:54;;;;;;;;;;;;;;;17.96;66.72;99592.97;5069870;28;20493;-59
2023/03/23 11:01:28;;;;;;;;;;;;;;;18.02;66.99;99600.59;5068049;28;19917;-58
2023/03/23 11:03:54;;;;;;;;;;;;;;;18.03;66.78;99596.09;5069995;28;20329;-59
2023/03/23 11:06:23;;;;;;;;;;;;;;;18.03;67.08;99588.88;5067369;28;19948;-59
2023/03/23 11:08:49;;;;;;;;;;;;;;;18.15;66.45;99596.06;5070228;28;20058;-59
2023/03/23 11:11:16;;;;;;;;;;;;;;;18.27;66.68;99592.53;5069061;28;20319;-59
2023/03/23 11:13:45;;;;;;;;;;;;;;;18.32;67.09;99600.28;5058412;28;20005;-59
2023/03/23 11:16:21;;;;;;;;;;;;;;;18.28;65.97;99596.97;5069474;28;19966;-59
2023/03/23 11:18:47;;;;;;;;;;;;;;;18.37;66.59;99593.59;5058722;28;19950;-59
2023/03/23 11:21:13;;;;;;;;;;;;;;;18.40;66.10;99592.59;5049803;28;19920;-59
2023/03/23 11:23:41;;;;;;;;;;;;;;;18.39;65.67;99593.53;5052296;28;20295;-59
2023/03/23 11:26:16;;;;;;;;;;;;;;;18.53;65.27;99592.56;5049878;28;20051;-59
2023/03/23 11:28:44;;;;;;;;;;;;;;;18.70;65.71;99589.53;5066948;28;19931;-59
2023/03/23 11:31:11;;;;;;;;;;;;;;;18.77;65.75;99588.94;5066567;28;19916;-58
2023/03/23 11:33:57;;;;;;;;;;;;;;;18.89;64.59;99587.19;5070174;28;19952;-59
2023/03/23 11:36:29;;;;;;;;;;;;;;;18.94;65.34;99587.72;5061092;28;19943;-58
2023/03/23 11:38:55;;;;;;;;;;;;;;;18.85;64.74;99577.59;5049685;28;19916;-59
2023/03/23 11:41:22;;;;;;;;;;;;;;;18.84;65.82;99578.59;5050134;28;19916;-59
2023/03/23 11:43:48;;;;;;;;;;;;;;;18.80;65.51;99566.28;5067494;28;20025;-59
2023/03/23 11:46:31;;;;;;;;;;;;;;;18.86;64.09;99573.94;5069462;28;20375;-59
2023/03/23 11:49:05;;;;;;;;;;;;;;;18.84;64.08;99565.97;5066275;28;19935;-58
2023/03/23 11:51:31;;;;;;;;;;;;;;;18.77;63.65;99569.22;5069390;28;19941;-58
2023/03/23 11:54:04;;;;;;;;;;;;;;;18.81;62.63;99570.72;5066203;28;19927;-58
2023/03/23 11:56:33;;;;;;;;;;;;;;;18.82;63.21;99573.31;5069639;28;19946;-60
2023/03/23 11:58:59;;;;;;;;;;;;;;;18.87;63.39;99571.13;5069683;28;19965;-59
2023/03/23 12:01:37;;;;;;;;;;;;;;;18.97;63.52;99571.31;5056767;28;19946;-58
2023/03/23 12:04:21;;;;;;;;;;;;;;;18.96;63.45;99575.00;5071164;28;19945;-59
2023/03/23 12:06:54;;;;;;;;;;;;;;;18.97;62.78;99563.22;5068799;28;20406;-59
2023/03/23 12:09:32;;;;;;;;;;;;;;;18.94;62.38;99560.75;5072829;28;19934;-59
2023/03/23 12:12:04;;;;;;;;;;;;;;;18.81;63.37;99549.16;5067706;28;19920;-58
2023/03/23 12:14:55;;;;;;;;;;;;;;;18.85;63.18;99556.91;5052613;28;20022;-59
2023/03/23 12:17:37;;;;;;;;;;;;;;;18.89;63.56;99546.75;5052862;28;20046;-59
2023/03/23 12:20:09;;;;;;;;;;;;;;;18.87;64.05;99548.72;5072338;28;20033;-59
2023/03/23 12:22:35;;;;;;;;;;;;;;;18.75;63.53;99550.47;5073536;28;19967;-59
2023/03/23 12:25:18;;;;;;;;;;;;;;;18.71;63.57;99542.72;5073310;28;20394;-59
2023/03/23 12:27:59;;;;;;;;;;;;;;;18.75;63.24;99546.91;5064326;28;19955;-59
2023/03/23 12:30:24;;;;;;;;;;;;;;;18.81;63.88;99541.97;5059746;28;20376;-58
2023/03/23 12:33:05;;;;;;;;;;;;;;;18.75;64.05;99545.06;5069298;28;19954;-58
2023/03/23 12:35:36;;;;;;;;;;;;;;;18.82;64.19;99540.09;5052956;28;19931;-59
2023/03/23 12:38:02;;;;;;;;;;;;;;;18.92;63.94;99535.75;5052752;28;19920;-59
2023/03/23 12:40:44;;;;;;;;;;;;;;;18.95;63.63;99524.75;5052942;28;19927;-59
2023/03/23 12:43:18;;;;;;;;;;;;;;;19.06;62.99;99519.44;5064815;28;19975;-59
2023/03/23 12:45:46;;;;;;;;;;;;;;;19.02;63.12;99504.44;5072683;28;19925;-59
2023/03/23 12:48:37;;;;;;;;;;;;;;;19.27;63.27;99517.81;5057999;28;20004;-59
2023/03/23 12:51:26;;;;;;;;;;;;;;;19.40;61.46;99511.41;5065551;28;20019;-59
2023/03/23 12:54:09;;;;;;;;;;;;;;;19.65;61.55;99513.06;5067980;28;20073;-58